createdAt,value
2022-11-13T00:01:59.635Z,6.77
2022-11-13T00:05:19.550Z,6.73
2022-11-13T00:08:43.316Z,6.74
2022-11-13T00:12:03.610Z,6.74
2022-11-13T00:15:23.765Z,6.76
2022-11-13T00:18:44.601Z,6.75
2022-11-13T00:22:06.706Z,6.73
2022-11-13T00:25:28.061Z,6.68
2022-11-13T00:28:48.675Z,6.64
2022-11-13T00:32:08.607Z,6.61
2022-11-13T00:35:29.787Z,6.60
2022-11-13T00:38:49.680Z,6.54
2022-11-13T00:42:09.779Z,6.54
2022-11-13T00:45:31.032Z,6.54
2022-11-13T00:48:51.887Z,6.56
2022-11-13T00:52:11.672Z,6.53
2022-11-13T00:55:32.806Z,6.53
2022-11-13T00:58:53.667Z,6.54
2022-11-13T01:02:14.836Z,6.52
2022-11-13T01:05:34.753Z,6.51
2022-11-13T01:08:55.840Z,6.50
2022-11-13T01:12:16.709Z,6.49
2022-11-13T01:15:36.905Z,6.54
2022-11-13T01:18:56.722Z,6.56
2022-11-13T01:22:16.850Z,6.54
2022-11-13T01:25:37.729Z,6.49
2022-11-13T01:29:00.262Z,6.40
2022-11-13T01:32:20.768Z,6.37
2022-11-13T01:35:41.025Z,6.37
2022-11-13T01:39:00.779Z,6.33
2022-11-13T01:42:21.941Z,6.31
2022-11-13T01:46:13.776Z,6.30
2022-11-13T01:49:49.988Z,6.29
2022-11-13T01:53:10.833Z,6.26
2022-11-13T01:56:30.919Z,6.23
2022-11-13T01:59:55.467Z,6.20
2022-11-13T02:03:46.904Z,6.21
2022-11-13T02:07:26.996Z,6.18
2022-11-13T02:10:46.887Z,6.17
2022-11-13T02:14:07.929Z,6.15
2022-11-13T02:17:33.878Z,6.11
2022-11-13T02:21:43.073Z,6.13
2022-11-13T02:25:03.888Z,6.17
2022-11-13T02:28:24.049Z,6.15
2022-11-13T02:31:43.912Z,6.12
2022-11-13T02:35:04.031Z,6.13
2022-11-13T02:38:26.215Z,6.15
2022-11-13T02:41:46.248Z,6.10
2022-11-13T02:45:05.920Z,6.11
2022-11-13T02:48:27.378Z,6.10
2022-11-13T02:51:39.930Z,6.12
2022-11-13T02:55:01.101Z,6.13
2022-11-13T02:58:15.946Z,6.16
2022-11-13T03:01:37.556Z,6.17
2022-11-13T03:05:13.970Z,6.15
2022-11-13T03:08:36.205Z,6.17
2022-11-13T03:11:56.984Z,6.17
2022-11-13T03:15:19.330Z,6.16
2022-11-13T03:18:40.000Z,6.14
2022-11-13T03:22:01.210Z,6.16
2022-11-13T03:25:22.018Z,6.20
2022-11-13T03:28:42.238Z,6.24
2022-11-13T03:32:03.034Z,6.29
2022-11-13T03:35:23.266Z,6.32
2022-11-13T03:38:44.033Z,6.33
2022-11-13T03:42:04.234Z,6.33
2022-11-13T03:45:24.055Z,6.33
2022-11-13T03:48:45.358Z,6.30
2022-11-13T03:52:05.063Z,6.32
2022-11-13T03:55:25.294Z,6.33
2022-11-13T03:58:49.572Z,6.32
2022-11-13T04:02:09.368Z,6.34
2022-11-13T04:05:30.207Z,6.33
2022-11-13T04:08:51.213Z,6.31
2022-11-13T04:12:11.168Z,6.29
2022-11-13T04:15:32.219Z,6.28
2022-11-13T04:18:45.168Z,6.24
2022-11-13T04:21:52.281Z,6.25
2022-11-13T04:25:13.166Z,6.27
2022-11-13T04:28:33.353Z,6.28
2022-11-13T04:31:54.170Z,6.29
2022-11-13T04:35:14.374Z,6.27
2022-11-13T04:38:35.201Z,6.21
2022-11-13T04:42:14.402Z,6.18
2022-11-13T04:45:37.225Z,6.12
2022-11-13T04:48:58.403Z,6.08
2022-11-13T04:52:21.115Z,6.06
2022-11-13T04:55:42.432Z,6.06
2022-11-13T04:59:02.255Z,6.08
2022-11-13T05:02:22.348Z,6.07
2022-11-13T05:05:42.342Z,6.06
2022-11-13T05:09:02.403Z,6.07
2022-11-13T05:12:22.299Z,6.07
2022-11-13T05:15:42.475Z,6.05
2022-11-13T05:19:02.302Z,6.04
2022-11-13T05:22:23.495Z,6.03
2022-11-13T05:25:43.305Z,6.00
2022-11-13T05:29:04.517Z,5.93
2022-11-13T05:32:24.369Z,5.90
2022-11-13T05:35:45.497Z,5.89
2022-11-13T05:39:05.353Z,5.87
2022-11-13T05:42:26.544Z,5.80
2022-11-13T05:45:47.378Z,5.76
2022-11-13T05:49:13.506Z,5.72
2022-11-13T05:52:33.365Z,5.73
2022-11-13T05:55:54.572Z,5.76
2022-11-13T05:59:15.429Z,5.73
2022-11-13T06:02:35.568Z,5.73
2022-11-13T06:05:55.415Z,5.76
2022-11-13T06:09:19.585Z,5.77
2022-11-13T06:12:39.437Z,5.79
2022-11-13T06:15:59.613Z,5.80
2022-11-13T06:19:22.476Z,5.79
2022-11-13T06:22:43.680Z,5.75
2022-11-13T06:26:03.766Z,5.71
2022-11-13T06:29:25.542Z,5.74
2022-11-13T06:32:46.460Z,5.73
2022-11-13T06:36:06.679Z,5.71
2022-11-13T06:39:27.520Z,5.66
2022-11-13T06:42:48.582Z,5.67
2022-11-13T06:46:10.473Z,5.74
2022-11-13T06:49:30.613Z,5.72
2022-11-13T06:52:51.519Z,5.72
2022-11-13T06:56:12.629Z,5.75
2022-11-13T06:59:33.528Z,5.78
2022-11-13T07:02:53.768Z,5.82
2022-11-13T07:06:21.545Z,5.83
2022-11-13T07:09:42.662Z,5.79
2022-11-13T07:13:02.595Z,5.78
2022-11-13T07:16:23.669Z,5.78
2022-11-13T07:19:44.583Z,5.75
2022-11-13T07:23:08.792Z,5.73
2022-11-13T07:26:28.614Z,5.72
2022-11-13T07:29:48.833Z,5.72
2022-11-13T07:33:08.613Z,5.77
2022-11-13T07:36:28.758Z,5.83
2022-11-13T07:39:49.647Z,5.87
2022-11-13T07:43:11.813Z,5.86
2022-11-13T07:46:31.623Z,5.85
2022-11-13T07:49:51.760Z,5.85
2022-11-13T07:53:14.674Z,5.85
2022-11-13T07:56:35.822Z,5.88
2022-11-13T07:59:55.795Z,5.89
2022-11-13T08:03:26.859Z,5.91
2022-11-13T08:06:46.810Z,5.91
2022-11-13T08:10:07.822Z,5.88
2022-11-13T08:13:27.777Z,5.86
2022-11-13T08:16:48.979Z,5.84
2022-11-13T08:20:10.741Z,5.83
2022-11-13T08:23:31.878Z,5.81
2022-11-13T08:26:51.852Z,5.87
2022-11-13T08:30:11.836Z,5.94
2022-11-13T08:33:25.800Z,5.95
2022-11-13T08:36:32.865Z,5.94
2022-11-13T08:39:52.781Z,5.94
2022-11-13T08:43:17.946Z,5.94
2022-11-13T08:46:38.824Z,5.89
2022-11-13T08:49:59.007Z,5.85
2022-11-13T08:53:18.844Z,5.85
2022-11-13T08:56:39.031Z,5.84
2022-11-13T08:59:58.831Z,5.88
2022-11-13T09:03:18.981Z,5.88
2022-11-13T09:06:38.874Z,5.86
2022-11-13T09:09:59.874Z,5.89
2022-11-13T09:13:20.880Z,5.92
2022-11-13T09:16:40.871Z,5.91
2022-11-13T09:19:53.883Z,5.94
2022-11-13T09:23:20.319Z,5.98
2022-11-13T09:26:40.917Z,5.98
2022-11-13T09:30:02.015Z,5.98
2022-11-13T09:33:23.885Z,5.99
2022-11-13T09:36:45.086Z,6.02
2022-11-13T09:40:05.897Z,6.08
2022-11-13T09:43:42.026Z,6.10
2022-11-13T09:47:31.928Z,6.14
2022-11-13T09:50:47.035Z,6.20
2022-11-13T09:54:08.956Z,6.24
2022-11-13T09:57:30.062Z,6.29
2022-11-13T10:00:51.002Z,6.36
2022-11-13T10:04:15.015Z,6.43
2022-11-13T10:07:46.989Z,6.48
2022-11-13T10:11:10.234Z,6.51
2022-11-13T10:14:37.042Z,6.53
2022-11-13T10:18:05.153Z,6.57
2022-11-13T10:21:41.017Z,6.58
2022-11-13T10:25:05.256Z,6.57
2022-11-13T10:28:50.529Z,6.62
2022-11-13T10:32:12.131Z,6.69
2022-11-13T10:35:42.106Z,6.75
2022-11-13T10:39:16.227Z,6.79
2022-11-13T10:42:43.327Z,6.81
2022-11-13T10:46:15.126Z,6.85
2022-11-13T10:49:40.139Z,6.97
2022-11-13T10:53:03.303Z,7.07
2022-11-13T10:56:39.176Z,7.16
2022-11-13T10:59:59.488Z,7.17
2022-11-13T11:03:22.187Z,7.20
2022-11-13T11:07:18.379Z,7.27
2022-11-13T11:10:35.164Z,7.37
2022-11-13T11:13:56.174Z,7.43
2022-11-13T11:17:19.244Z,7.46
2022-11-13T11:20:55.170Z,7.42
2022-11-13T11:24:48.177Z,7.40
2022-11-13T11:28:16.176Z,7.37
2022-11-13T11:31:47.183Z,7.35
2022-11-13T11:35:14.314Z,7.38
2022-11-13T11:38:38.177Z,7.45
2022-11-13T11:42:14.303Z,7.55
2022-11-13T11:45:46.215Z,7.61
2022-11-13T11:49:08.310Z,7.64
2022-11-13T11:52:38.245Z,7.66
2022-11-13T11:56:22.247Z,7.67
2022-11-13T12:00:03.275Z,7.70
2022-11-13T12:03:50.269Z,7.70
2022-11-13T12:07:26.317Z,7.77
2022-11-13T12:11:14.303Z,7.84
2022-11-13T12:14:41.286Z,7.84
2022-11-13T12:18:22.517Z,7.86
2022-11-13T12:22:02.293Z,7.89
2022-11-13T12:25:36.403Z,7.90
2022-11-13T12:29:08.376Z,7.88
2022-11-13T12:33:03.411Z,7.93
2022-11-13T12:36:26.374Z,7.97
2022-11-13T12:40:15.561Z,7.98
2022-11-13T12:43:50.388Z,8.02
2022-11-13T12:47:14.453Z,8.06
2022-11-13T12:50:41.430Z,8.10
2022-11-13T12:54:02.348Z,8.09
2022-11-13T12:57:30.622Z,8.05
2022-11-13T13:00:54.580Z,8.02
2022-11-13T13:04:29.425Z,8.01
2022-11-13T13:08:26.632Z,7.98
2022-11-13T13:11:55.399Z,7.96
2022-11-13T13:15:51.422Z,7.97
2022-11-13T13:19:36.510Z,7.97
2022-11-13T13:22:56.741Z,7.96
2022-11-13T13:26:38.142Z,7.92
2022-11-13T13:29:58.492Z,7.88
2022-11-13T13:33:53.484Z,7.83
2022-11-13T13:37:45.676Z,7.81
2022-11-13T13:41:25.511Z,7.78
2022-11-13T13:45:12.610Z,7.80
2022-11-13T13:48:37.534Z,7.81
2022-11-13T13:52:07.639Z,7.81
2022-11-13T13:55:42.574Z,7.80
2022-11-13T13:59:04.651Z,7.79
2022-11-13T14:02:31.587Z,7.81
2022-11-13T14:05:51.700Z,7.78
2022-11-13T14:09:35.722Z,7.74
2022-11-13T14:12:58.737Z,7.70
2022-11-13T14:16:20.602Z,7.68
2022-11-13T14:19:41.716Z,7.64
2022-11-13T14:23:04.592Z,7.61
2022-11-13T14:26:24.739Z,7.60
2022-11-13T14:30:00.593Z,7.61
2022-11-13T14:33:33.633Z,7.57
2022-11-13T14:36:54.601Z,7.54
2022-11-13T14:40:48.627Z,7.52
2022-11-13T14:44:08.656Z,7.51
2022-11-13T14:47:43.786Z,7.50
2022-11-13T14:51:09.659Z,7.51
2022-11-13T14:55:14.181Z,7.55
2022-11-13T14:58:41.679Z,7.55
2022-11-13T15:02:09.918Z,7.55
2022-11-13T15:05:29.693Z,7.53
2022-11-13T15:08:50.841Z,7.50
2022-11-13T15:12:10.724Z,7.48
2022-11-13T15:15:37.810Z,7.45
2022-11-13T15:19:20.724Z,7.39
2022-11-13T15:22:41.045Z,7.32
2022-11-13T15:26:04.748Z,7.32
2022-11-13T15:29:24.848Z,7.32
2022-11-13T15:32:45.764Z,7.31
2022-11-13T15:36:06.888Z,7.30
2022-11-13T15:39:26.800Z,7.28
2022-11-13T15:42:49.789Z,7.26
2022-11-13T15:46:09.780Z,7.24
2022-11-13T15:49:31.009Z,7.25
2022-11-13T15:52:53.795Z,7.24
2022-11-13T15:56:13.908Z,7.25
2022-11-13T15:59:34.892Z,7.28
2022-11-13T16:02:58.966Z,7.26
2022-11-13T16:06:22.273Z,7.25
2022-11-13T16:09:41.952Z,7.24
2022-11-13T16:13:02.906Z,7.22
2022-11-13T16:16:29.869Z,7.21
2022-11-13T16:19:51.876Z,7.21
2022-11-13T16:23:12.005Z,7.20
2022-11-13T16:26:38.868Z,7.22
2022-11-13T16:30:02.369Z,7.22
2022-11-13T16:33:27.232Z,7.20
2022-11-13T16:36:48.002Z,7.16
2022-11-13T16:40:07.893Z,7.12
2022-11-13T16:43:21.017Z,7.10
2022-11-13T16:46:40.012Z,7.09
2022-11-13T16:50:00.946Z,7.07
2022-11-13T16:53:14.940Z,7.04
2022-11-13T16:56:38.936Z,7.04
2022-11-13T16:59:59.056Z,7.07
2022-11-13T17:03:21.357Z,7.03
2022-11-13T17:06:44.041Z,6.99
2022-11-13T17:10:29.675Z,6.97
2022-11-13T17:13:44.256Z,6.94
2022-11-13T17:17:05.210Z,6.95
2022-11-13T17:20:27.138Z,6.96
2022-11-13T17:23:48.211Z,6.98
2022-11-13T17:27:08.370Z,6.99
2022-11-13T17:30:28.220Z,7.02
2022-11-13T17:33:49.084Z,7.00
2022-11-13T17:37:09.404Z,6.97
2022-11-13T17:40:29.067Z,6.96
2022-11-13T17:43:53.662Z,6.95
2022-11-13T17:47:15.100Z,6.93
2022-11-13T17:50:36.198Z,6.92
2022-11-13T17:53:56.145Z,6.92
2022-11-13T17:57:24.193Z,6.91
2022-11-13T18:00:47.118Z,6.88
2022-11-13T18:04:11.192Z,6.88
2022-11-13T18:07:31.204Z,6.87
2022-11-13T18:10:56.284Z,6.85
2022-11-13T18:14:16.164Z,6.82
2022-11-13T18:17:36.462Z,6.78
2022-11-13T18:20:57.172Z,6.75
2022-11-13T18:24:21.313Z,6.74
2022-11-13T18:27:42.229Z,6.73
2022-11-13T18:31:03.297Z,6.71
2022-11-13T18:34:30.826Z,6.72
2022-11-13T18:37:51.352Z,6.76
2022-11-13T18:41:19.239Z,6.74
2022-11-13T18:44:40.294Z,6.71
2022-11-13T18:48:01.343Z,6.69
2022-11-13T18:51:29.220Z,6.66
2022-11-13T18:54:50.572Z,6.65
2022-11-13T18:58:11.604Z,6.62
2022-11-13T19:01:33.717Z,6.63
2022-11-13T19:04:54.289Z,6.62
2022-11-13T19:08:15.399Z,6.60
2022-11-13T19:11:35.552Z,6.57
2022-11-13T19:14:56.661Z,6.52
2022-11-13T19:18:18.421Z,6.46
2022-11-13T19:21:42.312Z,6.41
2022-11-13T19:25:03.607Z,6.35
2022-11-13T19:28:23.333Z,6.31
2022-11-13T19:31:44.466Z,6.27
2022-11-13T19:35:04.525Z,6.26
2022-11-13T19:38:25.383Z,6.25
2022-11-13T19:41:46.524Z,6.24
2022-11-13T19:45:07.564Z,6.23
2022-11-13T19:48:27.348Z,6.23
2022-11-13T19:51:48.648Z,6.23
2022-11-13T19:55:09.469Z,6.20
2022-11-13T19:58:29.946Z,6.17
2022-11-13T20:01:51.438Z,6.15
2022-11-13T20:05:12.717Z,6.15
2022-11-13T20:08:34.983Z,6.17
2022-11-13T20:11:54.627Z,6.17
2022-11-13T20:15:15.439Z,6.17
2022-11-13T20:18:35.450Z,6.17
2022-11-13T20:21:56.483Z,6.16
2022-11-13T20:25:16.470Z,6.17
2022-11-13T20:28:37.836Z,6.16
2022-11-13T20:31:58.599Z,6.17
2022-11-13T20:35:22.668Z,6.17
2022-11-13T20:38:44.723Z,6.20
2022-11-13T20:42:04.546Z,6.22
2022-11-13T20:45:25.047Z,6.22
2022-11-13T20:48:45.526Z,6.20
2022-11-13T20:52:05.692Z,6.20
2022-11-13T20:55:26.520Z,6.23
2022-11-13T20:58:47.728Z,6.26
2022-11-13T21:02:08.576Z,6.28
2022-11-13T21:05:28.561Z,6.25
2022-11-13T21:08:48.626Z,6.20
2022-11-13T21:12:08.865Z,6.16
2022-11-13T21:15:29.590Z,6.13
2022-11-13T21:18:51.694Z,6.11
2022-11-13T21:22:11.598Z,6.09
2022-11-13T21:25:31.774Z,6.06
2022-11-13T21:28:53.568Z,6.05
2022-11-13T21:32:13.723Z,6.05
2022-11-13T21:35:34.654Z,6.04
2022-11-13T21:38:55.805Z,6.04
2022-11-13T21:42:16.688Z,6.02
2022-11-13T21:45:37.748Z,5.99
2022-11-13T21:48:58.694Z,5.96
2022-11-13T21:52:18.758Z,5.95
2022-11-13T21:55:38.690Z,5.93
2022-11-13T21:59:00.001Z,5.95
2022-11-13T22:02:23.734Z,5.97
2022-11-13T22:05:44.876Z,5.99
2022-11-13T22:09:13.673Z,6.02
2022-11-13T22:12:34.792Z,6.01
2022-11-13T22:15:55.714Z,6.02
2022-11-13T22:19:26.522Z,6.00
2022-11-13T22:22:47.764Z,5.97
2022-11-13T22:26:20.022Z,5.97
2022-11-13T22:29:39.735Z,5.99
2022-11-13T22:33:00.856Z,5.95
2022-11-13T22:36:26.782Z,5.93
2022-11-13T22:39:48.045Z,5.89
2022-11-13T22:43:08.969Z,5.89
2022-11-13T22:46:33.098Z,5.89
2022-11-13T22:49:54.791Z,5.92
2022-11-13T22:53:15.911Z,5.95
2022-11-13T22:56:38.853Z,5.96
2022-11-13T23:00:00.020Z,5.99
2022-11-13T23:03:19.932Z,5.98
2022-11-13T23:06:43.013Z,5.94
2022-11-13T23:10:03.852Z,5.90
2022-11-13T23:13:24.950Z,5.87
2022-11-13T23:16:47.873Z,5.83
2022-11-13T23:20:08.945Z,5.82
2022-11-13T23:23:29.933Z,5.79
2022-11-13T23:33:02.201Z,5.80
2022-11-13T23:36:16.110Z,5.77
2022-11-13T23:39:34.182Z,5.73
2022-11-13T23:42:55.897Z,5.72
2022-11-13T23:46:15.284Z,5.74
2022-11-13T23:49:34.155Z,5.76
2022-11-13T23:52:52.298Z,5.75
2022-11-13T23:56:11.144Z,5.75
2022-11-13T23:59:23.240Z,5.72
